
<gpx xmlns="http://www.topografix.com/GPX/1/1" xmlns:gpxx="http://www.garmin.com/xmlschemas/GpxExtensions/v3" xmlns:xsi="http://www.w3.org/2001/XMLSchema-instance" version="1.1" creator="Adze - http://kobotsw.com/apps/adze" xsi:schemaLocation="http://www.topografix.com/GPX/1/1 http://www.topografix.com/GPX/1/1/gpx.xsd http://www.garmin.com/xmlschemas/GpxExtensions/v3 http://www.garmin.com/xmlschemas/GpxExtensionsv3.xsd">
    <metadata>
        <name>Untitled Document</name>
        <link href="http://www.garmin.com"></link>
        <time>2018-02-26T04:04:28.096Z</time>
    </metadata>
    <wpt lon="101.042324" lat="13.041381">
        <ele>87.000000</ele>
        <time>2015-07-25T05:56:12Z</time>
        <name>Burapha Golf</name>
        <sym>Lodging</sym>
        <extensions>
            <gpxx:WaypointExtension xmlns:gpxx="http://www.garmin.com/xmlschemas/GpxExtensions/v3">
                <gpxx:DisplayMode>SymbolOnly</gpxx:DisplayMode>
            </gpxx:WaypointExtension>
        </extensions>
    </wpt>
    <trk>
        <name>Sunday (part)</name>
        <extensions>
            <gpxx:TrackExtension xmlns:gpxx="http://www.garmin.com/xmlschemas/GpxExtensions/v3">
                <gpxx:DisplayColor>Green</gpxx:DisplayColor>
            </gpxx:TrackExtension>
        </extensions>
        <trkseg>
            <trkpt lon="101.042370" lat="13.041126">
                <ele>83.770000</ele>
                <time>2015-07-26T03:02:00Z</time>
            </trkpt>
            <trkpt lon="101.042364" lat="13.041138">
                <ele>83.770000</ele>
                <time>2015-07-26T03:02:02Z</time>
            </trkpt>
            <trkpt lon="101.042338" lat="13.041137">
                <ele>82.810000</ele>
                <time>2015-07-26T03:02:09Z</time>
            </trkpt>
            <trkpt lon="101.042404" lat="13.041100">
                <ele>85.210000</ele>
                <time>2015-07-26T03:02:15Z</time>
            </trkpt>
            <trkpt lon="101.042822" lat="13.041119">
                <ele>89.060000</ele>
                <time>2015-07-26T03:02:30Z</time>
            </trkpt>
            <trkpt lon="101.042977" lat="13.040913">
                <ele>90.020000</ele>
                <time>2015-07-26T03:02:40Z</time>
            </trkpt>
            <trkpt lon="101.043235" lat="13.040314">
                <ele>90.980000</ele>
                <time>2015-07-26T03:02:59Z</time>
            </trkpt>
            <trkpt lon="101.043600" lat="13.039968">
                <ele>92.900000</ele>
                <time>2015-07-26T03:03:15Z</time>
            </trkpt>
            <trkpt lon="101.043913" lat="13.039797">
                <ele>94.830000</ele>
                <time>2015-07-26T03:03:29Z</time>
            </trkpt>
            <trkpt lon="101.044300" lat="13.039663">
                <ele>98.190000</ele>
                <time>2015-07-26T03:03:46Z</time>
            </trkpt>
            <trkpt lon="101.044693" lat="13.039569">
                <ele>100.110000</ele>
                <time>2015-07-26T03:04:03Z</time>
            </trkpt>
            <trkpt lon="101.045110" lat="13.039551">
                <ele>102.040000</ele>
                <time>2015-07-26T03:04:19Z</time>
            </trkpt>
            <trkpt lon="101.045556" lat="13.039723">
                <ele>102.520000</ele>
                <time>2015-07-26T03:04:35Z</time>
            </trkpt>
            <trkpt lon="101.045739" lat="13.040089">
                <ele>103.000000</ele>
                <time>2015-07-26T03:04:48Z</time>
            </trkpt>
            <trkpt lon="101.045763" lat="13.040108">
                <ele>103.480000</ele>
                <time>2015-07-26T03:04:49Z</time>
            </trkpt>
            <trkpt lon="101.045789" lat="13.040122">
                <ele>103.480000</ele>
                <time>2015-07-26T03:04:50Z</time>
            </trkpt>
            <trkpt lon="101.045817" lat="13.040138">
                <ele>103.960000</ele>
                <time>2015-07-26T03:04:51Z</time>
            </trkpt>
            <trkpt lon="101.045838" lat="13.040159">
                <ele>103.960000</ele>
                <time>2015-07-26T03:04:52Z</time>
            </trkpt>
            <trkpt lon="101.045856" lat="13.040181">
                <ele>103.960000</ele>
                <time>2015-07-26T03:04:53Z</time>
            </trkpt>
            <trkpt lon="101.045874" lat="13.040208">
                <ele>103.960000</ele>
                <time>2015-07-26T03:04:54Z</time>
            </trkpt>
            <trkpt lon="101.045890" lat="13.040238">
                <ele>103.960000</ele>
                <time>2015-07-26T03:04:55Z</time>
            </trkpt>
            <trkpt lon="101.045906" lat="13.040270">
                <ele>103.960000</ele>
                <time>2015-07-26T03:04:56Z</time>
            </trkpt>
            <trkpt lon="101.046197" lat="13.040710">
                <ele>102.520000</ele>
                <time>2015-07-26T03:05:10Z</time>
            </trkpt>
            <trkpt lon="101.046230" lat="13.040735">
                <ele>102.520000</ele>
                <time>2015-07-26T03:05:11Z</time>
            </trkpt>
            <trkpt lon="101.046265" lat="13.040758">
                <ele>102.520000</ele>
                <time>2015-07-26T03:05:12Z</time>
            </trkpt>
            <trkpt lon="101.046301" lat="13.040779">
                <ele>102.520000</ele>
                <time>2015-07-26T03:05:13Z</time>
            </trkpt>
            <trkpt lon="101.046337" lat="13.040799">
                <ele>102.520000</ele>
                <time>2015-07-26T03:05:14Z</time>
            </trkpt>
            <trkpt lon="101.047028" lat="13.041037">
                <ele>103.960000</ele>
                <time>2015-07-26T03:05:32Z</time>
            </trkpt>
            <trkpt lon="101.047499" lat="13.041211">
                <ele>106.840000</ele>
                <time>2015-07-26T03:05:48Z</time>
            </trkpt>
            <trkpt lon="101.047944" lat="13.041444">
                <ele>109.250000</ele>
                <time>2015-07-26T03:06:06Z</time>
            </trkpt>
            <trkpt lon="101.048263" lat="13.041725">
                <ele>111.650000</ele>
                <time>2015-07-26T03:06:23Z</time>
            </trkpt>
            <trkpt lon="101.048536" lat="13.041940">
                <ele>114.050000</ele>
                <time>2015-07-26T03:06:39Z</time>
            </trkpt>
            <trkpt lon="101.048786" lat="13.042090">
                <ele>115.010000</ele>
                <time>2015-07-26T03:06:53Z</time>
            </trkpt>
            <trkpt lon="101.049048" lat="13.042273">
                <ele>118.380000</ele>
                <time>2015-07-26T03:07:09Z</time>
            </trkpt>
            <trkpt lon="101.049286" lat="13.042645">
                <ele>120.300000</ele>
                <time>2015-07-26T03:07:27Z</time>
            </trkpt>
            <trkpt lon="101.049365" lat="13.043239">
                <ele>120.300000</ele>
                <time>2015-07-26T03:07:45Z</time>
            </trkpt>
            <trkpt lon="101.049605" lat="13.043601">
                <ele>121.260000</ele>
                <time>2015-07-26T03:07:59Z</time>
            </trkpt>
            <trkpt lon="101.049968" lat="13.043937">
                <ele>124.150000</ele>
                <time>2015-07-26T03:08:17Z</time>
            </trkpt>
            <trkpt lon="101.050329" lat="13.044309">
                <ele>126.550000</ele>
                <time>2015-07-26T03:08:36Z</time>
            </trkpt>
            <trkpt lon="101.050534" lat="13.044608">
                <ele>127.990000</ele>
                <time>2015-07-26T03:08:51Z</time>
            </trkpt>
            <trkpt lon="101.050687" lat="13.044970">
                <ele>129.920000</ele>
                <time>2015-07-26T03:09:08Z</time>
            </trkpt>
            <trkpt lon="101.050898" lat="13.045320">
                <ele>132.800000</ele>
                <time>2015-07-26T03:09:26Z</time>
            </trkpt>
            <trkpt lon="101.051029" lat="13.045524">
                <ele>134.720000</ele>
                <time>2015-07-26T03:09:41Z</time>
            </trkpt>
            <trkpt lon="101.051036" lat="13.046004">
                <ele>136.160000</ele>
                <time>2015-07-26T03:09:59Z</time>
            </trkpt>
            <trkpt lon="101.051138" lat="13.046428">
                <ele>138.090000</ele>
                <time>2015-07-26T03:10:16Z</time>
            </trkpt>
            <trkpt lon="101.051331" lat="13.046729">
                <ele>139.050000</ele>
                <time>2015-07-26T03:10:33Z</time>
            </trkpt>
            <trkpt lon="101.051531" lat="13.046994">
                <ele>140.970000</ele>
                <time>2015-07-26T03:10:51Z</time>
            </trkpt>
            <trkpt lon="101.051631" lat="13.047087">
                <ele>141.930000</ele>
                <time>2015-07-26T03:11:06Z</time>
            </trkpt>
            <trkpt lon="101.051658" lat="13.047114">
                <ele>142.410000</ele>
                <time>2015-07-26T03:11:23Z</time>
            </trkpt>
            <trkpt lon="101.051668" lat="13.047126">
                <ele>142.890000</ele>
                <time>2015-07-26T03:11:42Z</time>
            </trkpt>
            <trkpt lon="101.051698" lat="13.047142">
                <ele>144.340000</ele>
                <time>2015-07-26T03:12:00Z</time>
            </trkpt>
            <trkpt lon="101.051706" lat="13.047149">
                <ele>143.370000</ele>
                <time>2015-07-26T03:12:21Z</time>
            </trkpt>
            <trkpt lon="101.051706" lat="13.047178">
                <ele>143.850000</ele>
                <time>2015-07-26T03:12:39Z</time>
            </trkpt>
            <trkpt lon="101.051729" lat="13.047200">
                <ele>144.820000</ele>
                <time>2015-07-26T03:12:48Z</time>
            </trkpt>
            <trkpt lon="101.051742" lat="13.047199">
                <ele>145.300000</ele>
                <time>2015-07-26T03:12:49Z</time>
            </trkpt>
            <trkpt lon="101.051874" lat="13.047136">
                <ele>145.780000</ele>
                <time>2015-07-26T03:12:56Z</time>
            </trkpt>
            <trkpt lon="101.051880" lat="13.047107">
                <ele>145.780000</ele>
                <time>2015-07-26T03:12:57Z</time>
            </trkpt>
            <trkpt lon="101.051873" lat="13.047071">
                <ele>145.780000</ele>
                <time>2015-07-26T03:12:58Z</time>
            </trkpt>
            <trkpt lon="101.051859" lat="13.047042">
                <ele>146.260000</ele>
                <time>2015-07-26T03:12:59Z</time>
            </trkpt>
            <trkpt lon="101.051834" lat="13.047008">
                <ele>146.260000</ele>
                <time>2015-07-26T03:13:00Z</time>
            </trkpt>
            <trkpt lon="101.051809" lat="13.046975">
                <ele>146.260000</ele>
                <time>2015-07-26T03:13:01Z</time>
            </trkpt>
            <trkpt lon="101.051396" lat="13.046468">
                <ele>143.850000</ele>
                <time>2015-07-26T03:13:14Z</time>
            </trkpt>
            <trkpt lon="101.051370" lat="13.046419">
                <ele>143.370000</ele>
                <time>2015-07-26T03:13:15Z</time>
            </trkpt>
            <trkpt lon="101.051326" lat="13.046311">
                <ele>142.890000</ele>
                <time>2015-07-26T03:13:17Z</time>
            </trkpt>
            <trkpt lon="101.051230" lat="13.045389">
                <ele>139.050000</ele>
                <time>2015-07-26T03:13:32Z</time>
            </trkpt>
            <trkpt lon="101.051171" lat="13.044247">
                <ele>132.800000</ele>
                <time>2015-07-26T03:13:47Z</time>
            </trkpt>
            <trkpt lon="101.051181" lat="13.044164">
                <ele>132.320000</ele>
                <time>2015-07-26T03:13:48Z</time>
            </trkpt>
            <trkpt lon="101.051199" lat="13.044084">
                <ele>131.840000</ele>
                <time>2015-07-26T03:13:49Z</time>
            </trkpt>
            <trkpt lon="101.051222" lat="13.044012">
                <ele>131.360000</ele>
                <time>2015-07-26T03:13:50Z</time>
            </trkpt>
            <trkpt lon="101.051250" lat="13.043940">
                <ele>130.880000</ele>
                <time>2015-07-26T03:13:51Z</time>
            </trkpt>
            <trkpt lon="101.051368" lat="13.043667">
                <ele>129.920000</ele>
                <time>2015-07-26T03:13:56Z</time>
            </trkpt>
            <trkpt lon="101.051399" lat="13.043649">
                <ele>129.920000</ele>
                <time>2015-07-26T03:13:57Z</time>
            </trkpt>
            <trkpt lon="101.051433" lat="13.043642">
                <ele>129.920000</ele>
                <time>2015-07-26T03:13:58Z</time>
            </trkpt>
            <trkpt lon="101.051751" lat="13.043369">
                <ele>130.400000</ele>
                <time>2015-07-26T03:14:10Z</time>
            </trkpt>
            <trkpt lon="101.051948" lat="13.043212">
                <ele>130.400000</ele>
                <time>2015-07-26T03:14:23Z</time>
            </trkpt>
            <trkpt lon="101.051961" lat="13.043208">
                <ele>130.880000</ele>
                <time>2015-07-26T03:14:41Z</time>
            </trkpt>
            <trkpt lon="101.051962" lat="13.043211">
                <ele>130.400000</ele>
                <time>2015-07-26T03:15:16Z</time>
            </trkpt>
            <trkpt lon="101.051978" lat="13.043219">
                <ele>129.920000</ele>
                <time>2015-07-26T03:15:39Z</time>
            </trkpt>
            <trkpt lon="101.051980" lat="13.043231">
                <ele>130.880000</ele>
                <time>2015-07-26T03:15:54Z</time>
            </trkpt>
            <trkpt lon="101.051992" lat="13.043253">
                <ele>130.400000</ele>
                <time>2015-07-26T03:16:07Z</time>
            </trkpt>
            <trkpt lon="101.051985" lat="13.043241">
                <ele>130.880000</ele>
                <time>2015-07-26T03:16:18Z</time>
            </trkpt>
            <trkpt lon="101.051901" lat="13.043236">
                <ele>130.880000</ele>
                <time>2015-07-26T03:16:24Z</time>
            </trkpt>
            <trkpt lon="101.051844" lat="13.043273">
                <ele>131.360000</ele>
                <time>2015-07-26T03:16:39Z</time>
            </trkpt>
            <trkpt lon="101.051804" lat="13.043307">
                <ele>131.360000</ele>
                <time>2015-07-26T03:16:53Z</time>
            </trkpt>
            <trkpt lon="101.051773" lat="13.043325">
                <ele>131.840000</ele>
                <time>2015-07-26T03:17:06Z</time>
            </trkpt>
            <trkpt lon="101.051684" lat="13.043434">
                <ele>131.360000</ele>
                <time>2015-07-26T03:17:17Z</time>
            </trkpt>
            <trkpt lon="101.051483" lat="13.043619">
                <ele>129.430000</ele>
                <time>2015-07-26T03:17:31Z</time>
            </trkpt>
            <trkpt lon="101.051454" lat="13.043635">
                <ele>128.950000</ele>
                <time>2015-07-26T03:17:36Z</time>
            </trkpt>
            <trkpt lon="101.051376" lat="13.043645">
                <ele>129.430000</ele>
                <time>2015-07-26T03:17:49Z</time>
            </trkpt>
            <trkpt lon="101.051360" lat="13.043648">
                <ele>129.430000</ele>
                <time>2015-07-26T03:17:50Z</time>
            </trkpt>
            <trkpt lon="101.051320" lat="13.043686">
                <ele>129.430000</ele>
                <time>2015-07-26T03:17:53Z</time>
            </trkpt>
            <trkpt lon="101.051308" lat="13.043705">
                <ele>129.430000</ele>
                <time>2015-07-26T03:17:54Z</time>
            </trkpt>
            <trkpt lon="101.051297" lat="13.043727">
                <ele>129.920000</ele>
                <time>2015-07-26T03:17:55Z</time>
            </trkpt>
            <trkpt lon="101.051287" lat="13.043750">
                <ele>129.430000</ele>
                <time>2015-07-26T03:17:56Z</time>
            </trkpt>
            <trkpt lon="101.051215" lat="13.043849">
                <ele>129.430000</ele>
                <time>2015-07-26T03:18:09Z</time>
            </trkpt>
            <trkpt lon="101.051208" lat="13.043827">
                <ele>128.950000</ele>
                <time>2015-07-26T03:18:12Z</time>
            </trkpt>
            <trkpt lon="101.051208" lat="13.043811">
                <ele>128.470000</ele>
                <time>2015-07-26T03:18:13Z</time>
            </trkpt>
            <trkpt lon="101.051211" lat="13.043789">
                <ele>128.470000</ele>
                <time>2015-07-26T03:18:14Z</time>
            </trkpt>
            <trkpt lon="101.051259" lat="13.043434">
                <ele>124.630000</ele>
                <time>2015-07-26T03:18:27Z</time>
            </trkpt>
            <trkpt lon="101.051135" lat="13.043264">
                <ele>123.190000</ele>
                <time>2015-07-26T03:18:40Z</time>
            </trkpt>
            <trkpt lon="101.050834" lat="13.043252">
                <ele>121.260000</ele>
                <time>2015-07-26T03:18:54Z</time>
            </trkpt>
            <trkpt lon="101.050626" lat="13.043069">
                <ele>119.340000</ele>
                <time>2015-07-26T03:19:05Z</time>
            </trkpt>
            <trkpt lon="101.050673" lat="13.043024">
                <ele>119.340000</ele>
                <time>2015-07-26T03:19:12Z</time>
            </trkpt>
            <trkpt lon="101.050697" lat="13.043029">
                <ele>119.820000</ele>
                <time>2015-07-26T03:19:14Z</time>
            </trkpt>
            <trkpt lon="101.050886" lat="13.043004">
                <ele>121.260000</ele>
                <time>2015-07-26T03:19:25Z</time>
            </trkpt>
            <trkpt lon="101.051053" lat="13.042995">
                <ele>122.220000</ele>
                <time>2015-07-26T03:19:35Z</time>
            </trkpt>
            <trkpt lon="101.051092" lat="13.042868">
                <ele>122.710000</ele>
                <time>2015-07-26T03:19:42Z</time>
            </trkpt>
            <trkpt lon="101.051148" lat="13.042906">
                <ele>122.710000</ele>
                <time>2015-07-26T03:19:47Z</time>
            </trkpt>
            <trkpt lon="101.051225" lat="13.043329">
                <ele>124.630000</ele>
                <time>2015-07-26T03:20:03Z</time>
            </trkpt>
            <trkpt lon="101.051225" lat="13.043614">
                <ele>127.510000</ele>
                <time>2015-07-26T03:20:19Z</time>
            </trkpt>
            <trkpt lon="101.051205" lat="13.043867">
                <ele>129.920000</ele>
                <time>2015-07-26T03:20:35Z</time>
            </trkpt>
            <trkpt lon="101.051221" lat="13.043900">
                <ele>130.400000</ele>
                <time>2015-07-26T03:20:49Z</time>
            </trkpt>
            <trkpt lon="101.051269" lat="13.043893">
                <ele>129.920000</ele>
                <time>2015-07-26T03:20:52Z</time>
            </trkpt>
            <trkpt lon="101.051284" lat="13.043874">
                <ele>129.920000</ele>
                <time>2015-07-26T03:20:53Z</time>
            </trkpt>
            <trkpt lon="101.051296" lat="13.043847">
                <ele>129.920000</ele>
                <time>2015-07-26T03:20:54Z</time>
            </trkpt>
            <trkpt lon="101.051307" lat="13.043818">
                <ele>129.920000</ele>
                <time>2015-07-26T03:20:55Z</time>
            </trkpt>
            <trkpt lon="101.051397" lat="13.043660">
                <ele>129.430000</ele>
                <time>2015-07-26T03:21:01Z</time>
            </trkpt>
            <trkpt lon="101.051428" lat="13.043650">
                <ele>128.950000</ele>
                <time>2015-07-26T03:21:02Z</time>
            </trkpt>
            <trkpt lon="101.051716" lat="13.043411">
                <ele>129.430000</ele>
                <time>2015-07-26T03:21:14Z</time>
            </trkpt>
            <trkpt lon="101.052113" lat="13.043123">
                <ele>130.400000</ele>
                <time>2015-07-26T03:21:29Z</time>
            </trkpt>
            <trkpt lon="101.052502" lat="13.042997">
                <ele>129.920000</ele>
                <time>2015-07-26T03:21:40Z</time>
            </trkpt>
            <trkpt lon="101.052582" lat="13.042899">
                <ele>129.430000</ele>
                <time>2015-07-26T03:21:45Z</time>
            </trkpt>
            <trkpt lon="101.052655" lat="13.042329">
                <ele>128.950000</ele>
                <time>2015-07-26T03:22:01Z</time>
            </trkpt>
            <trkpt lon="101.052689" lat="13.041848">
                <ele>127.510000</ele>
                <time>2015-07-26T03:22:17Z</time>
            </trkpt>
            <trkpt lon="101.052689" lat="13.041675">
                <ele>126.070000</ele>
                <time>2015-07-26T03:22:25Z</time>
            </trkpt>
            <trkpt lon="101.052720" lat="13.041561">
                <ele>126.070000</ele>
                <time>2015-07-26T03:22:31Z</time>
            </trkpt>
            <trkpt lon="101.052755" lat="13.041458">
                <ele>125.590000</ele>
                <time>2015-07-26T03:22:35Z</time>
            </trkpt>
            <trkpt lon="101.053105" lat="13.041313">
                <ele>127.510000</ele>
                <time>2015-07-26T03:22:49Z</time>
            </trkpt>
            <trkpt lon="101.053459" lat="13.041225">
                <ele>128.470000</ele>
                <time>2015-07-26T03:23:01Z</time>
            </trkpt>
            <trkpt lon="101.054016" lat="13.041096">
                <ele>126.070000</ele>
                <time>2015-07-26T03:23:18Z</time>
            </trkpt>
            <trkpt lon="101.054324" lat="13.040985">
                <ele>125.590000</ele>
                <time>2015-07-26T03:23:29Z</time>
            </trkpt>
            <trkpt lon="101.054561" lat="13.040954">
                <ele>126.070000</ele>
                <time>2015-07-26T03:23:40Z</time>
            </trkpt>
            <trkpt lon="101.054590" lat="13.040957">
                <ele>126.070000</ele>
                <time>2015-07-26T03:23:42Z</time>
            </trkpt>
            <trkpt lon="101.054937" lat="13.040917">
                <ele>127.990000</ele>
                <time>2015-07-26T03:24:01Z</time>
            </trkpt>
            <trkpt lon="101.055354" lat="13.040861">
                <ele>127.990000</ele>
                <time>2015-07-26T03:24:17Z</time>
            </trkpt>
            <trkpt lon="101.055493" lat="13.040815">
                <ele>127.510000</ele>
                <time>2015-07-26T03:24:27Z</time>
            </trkpt>
            <trkpt lon="101.055567" lat="13.040752">
                <ele>127.510000</ele>
                <time>2015-07-26T03:24:43Z</time>
            </trkpt>
            <trkpt lon="101.055570" lat="13.040742">
                <ele>127.510000</ele>
                <time>2015-07-26T03:24:47Z</time>
            </trkpt>
            <trkpt lon="101.055559" lat="13.040699">
                <ele>127.990000</ele>
                <time>2015-07-26T03:24:57Z</time>
            </trkpt>
            <trkpt lon="101.055554" lat="13.040684">
                <ele>127.510000</ele>
                <time>2015-07-26T03:25:02Z</time>
            </trkpt>
            <trkpt lon="101.055548" lat="13.040665">
                <ele>127.510000</ele>
                <time>2015-07-26T03:25:04Z</time>
            </trkpt>
            <trkpt lon="101.055489" lat="13.040389">
                <ele>128.470000</ele>
                <time>2015-07-26T03:25:20Z</time>
            </trkpt>
            <trkpt lon="101.055418" lat="13.040121">
                <ele>128.470000</ele>
                <time>2015-07-26T03:25:34Z</time>
            </trkpt>
            <trkpt lon="101.055362" lat="13.039816">
                <ele>125.590000</ele>
                <time>2015-07-26T03:25:47Z</time>
            </trkpt>
            <trkpt lon="101.055343" lat="13.039583">
                <ele>124.150000</ele>
                <time>2015-07-26T03:25:59Z</time>
            </trkpt>
            <trkpt lon="101.055521" lat="13.039525">
                <ele>124.630000</ele>
                <time>2015-07-26T03:26:07Z</time>
            </trkpt>
            <trkpt lon="101.056074" lat="13.039315">
                <ele>125.110000</ele>
                <time>2015-07-26T03:26:27Z</time>
            </trkpt>
            <trkpt lon="101.056363" lat="13.039218">
                <ele>125.110000</ele>
                <time>2015-07-26T03:26:38Z</time>
            </trkpt>
            <trkpt lon="101.056818" lat="13.039038">
                <ele>123.670000</ele>
                <time>2015-07-26T03:26:53Z</time>
            </trkpt>
            <trkpt lon="101.057072" lat="13.038930">
                <ele>122.710000</ele>
                <time>2015-07-26T03:27:06Z</time>
            </trkpt>
            <trkpt lon="101.057090" lat="13.038914">
                <ele>122.710000</ele>
                <time>2015-07-26T03:27:08Z</time>
            </trkpt>
            <trkpt lon="101.057242" lat="13.038869">
                <ele>123.670000</ele>
                <time>2015-07-26T03:27:23Z</time>
            </trkpt>
            <trkpt lon="101.057586" lat="13.038741">
                <ele>124.630000</ele>
                <time>2015-07-26T03:27:39Z</time>
            </trkpt>
            <trkpt lon="101.057939" lat="13.038599">
                <ele>126.550000</ele>
                <time>2015-07-26T03:27:56Z</time>
            </trkpt>
            <trkpt lon="101.058230" lat="13.038477">
                <ele>127.510000</ele>
                <time>2015-07-26T03:28:11Z</time>
            </trkpt>
            <trkpt lon="101.058187" lat="13.038129">
                <ele>125.110000</ele>
                <time>2015-07-26T03:28:27Z</time>
            </trkpt>
            <trkpt lon="101.058017" lat="13.037893">
                <ele>122.710000</ele>
                <time>2015-07-26T03:28:40Z</time>
            </trkpt>
            <trkpt lon="101.058012" lat="13.037821">
                <ele>122.220000</ele>
                <time>2015-07-26T03:28:44Z</time>
            </trkpt>
            <trkpt lon="101.058121" lat="13.037749">
                <ele>122.710000</ele>
                <time>2015-07-26T03:28:50Z</time>
            </trkpt>
            <trkpt lon="101.058526" lat="13.037573">
                <ele>123.190000</ele>
                <time>2015-07-26T03:29:04Z</time>
            </trkpt>
            <trkpt lon="101.058861" lat="13.037424">
                <ele>122.710000</ele>
                <time>2015-07-26T03:29:16Z</time>
            </trkpt>
            <trkpt lon="101.059027" lat="13.037371">
                <ele>122.710000</ele>
                <time>2015-07-26T03:29:22Z</time>
            </trkpt>
            <trkpt lon="101.059252" lat="13.037252">
                <ele>121.740000</ele>
                <time>2015-07-26T03:29:30Z</time>
            </trkpt>
            <trkpt lon="101.059231" lat="13.037119">
                <ele>121.260000</ele>
                <time>2015-07-26T03:29:35Z</time>
            </trkpt>
            <trkpt lon="101.058910" lat="13.036720">
                <ele>118.860000</ele>
                <time>2015-07-26T03:29:52Z</time>
            </trkpt>
            <trkpt lon="101.058786" lat="13.036502">
                <ele>116.460000</ele>
                <time>2015-07-26T03:30:04Z</time>
            </trkpt>
            <trkpt lon="101.058660" lat="13.036209">
                <ele>115.010000</ele>
                <time>2015-07-26T03:30:17Z</time>
            </trkpt>
            <trkpt lon="101.058666" lat="13.036157">
                <ele>115.010000</ele>
                <time>2015-07-26T03:30:19Z</time>
            </trkpt>
            <trkpt lon="101.059041" lat="13.035920">
                <ele>115.500000</ele>
                <time>2015-07-26T03:30:32Z</time>
            </trkpt>
            <trkpt lon="101.059288" lat="13.035856">
                <ele>114.530000</ele>
                <time>2015-07-26T03:30:42Z</time>
            </trkpt>
            <trkpt lon="101.059661" lat="13.036305">
                <ele>115.500000</ele>
                <time>2015-07-26T03:30:57Z</time>
            </trkpt>
            <trkpt lon="101.060186" lat="13.036947">
                <ele>116.460000</ele>
                <time>2015-07-26T03:31:15Z</time>
            </trkpt>
            <trkpt lon="101.060329" lat="13.037218">
                <ele>116.940000</ele>
                <time>2015-07-26T03:31:22Z</time>
            </trkpt>
            <trkpt lon="101.060368" lat="13.037334">
                <ele>117.420000</ele>
                <time>2015-07-26T03:31:25Z</time>
            </trkpt>
            <trkpt lon="101.060488" lat="13.037938">
                <ele>118.860000</ele>
                <time>2015-07-26T03:31:41Z</time>
            </trkpt>
            <trkpt lon="101.060870" lat="13.038386">
                <ele>120.300000</ele>
                <time>2015-07-26T03:31:57Z</time>
            </trkpt>
            <trkpt lon="101.061194" lat="13.038673">
                <ele>122.710000</ele>
                <time>2015-07-26T03:32:13Z</time>
            </trkpt>
            <trkpt lon="101.061429" lat="13.038991">
                <ele>125.590000</ele>
                <time>2015-07-26T03:32:29Z</time>
            </trkpt>
            <trkpt lon="101.061611" lat="13.039279">
                <ele>127.990000</ele>
                <time>2015-07-26T03:32:44Z</time>
            </trkpt>
            <trkpt lon="101.061849" lat="13.039579">
                <ele>129.430000</ele>
                <time>2015-07-26T03:33:00Z</time>
            </trkpt>
            <trkpt lon="101.062018" lat="13.039581">
                <ele>130.400000</ele>
                <time>2015-07-26T03:33:09Z</time>
            </trkpt>
            <trkpt lon="101.062181" lat="13.039501">
                <ele>129.920000</ele>
                <time>2015-07-26T03:33:15Z</time>
            </trkpt>
            <trkpt lon="101.062597" lat="13.039347">
                <ele>130.400000</ele>
                <time>2015-07-26T03:33:28Z</time>
            </trkpt>
            <trkpt lon="101.062909" lat="13.039151">
                <ele>128.950000</ele>
                <time>2015-07-26T03:33:40Z</time>
            </trkpt>
            <trkpt lon="101.063420" lat="13.038936">
                <ele>128.470000</ele>
                <time>2015-07-26T03:33:55Z</time>
            </trkpt>
            <trkpt lon="101.063879" lat="13.038691">
                <ele>127.990000</ele>
                <time>2015-07-26T03:34:10Z</time>
            </trkpt>
            <trkpt lon="101.064139" lat="13.038516">
                <ele>127.990000</ele>
                <time>2015-07-26T03:34:24Z</time>
            </trkpt>
            <trkpt lon="101.064217" lat="13.038453">
                <ele>127.510000</ele>
                <time>2015-07-26T03:34:35Z</time>
            </trkpt>
            <trkpt lon="101.064324" lat="13.038230">
                <ele>127.510000</ele>
                <time>2015-07-26T03:34:50Z</time>
            </trkpt>
            <trkpt lon="101.064253" lat="13.037999">
                <ele>126.550000</ele>
                <time>2015-07-26T03:35:03Z</time>
            </trkpt>
            <trkpt lon="101.064115" lat="13.037689">
                <ele>125.590000</ele>
                <time>2015-07-26T03:35:18Z</time>
            </trkpt>
            <trkpt lon="101.064009" lat="13.037497">
                <ele>126.550000</ele>
                <time>2015-07-26T03:35:29Z</time>
            </trkpt>
            <trkpt lon="101.063882" lat="13.037208">
                <ele>129.920000</ele>
                <time>2015-07-26T03:35:43Z</time>
            </trkpt>
            <trkpt lon="101.063712" lat="13.036843">
                <ele>131.840000</ele>
                <time>2015-07-26T03:35:58Z</time>
            </trkpt>
            <trkpt lon="101.063636" lat="13.036604">
                <ele>133.280000</ele>
                <time>2015-07-26T03:36:10Z</time>
            </trkpt>
            <trkpt lon="101.063595" lat="13.036535">
                <ele>136.160000</ele>
                <time>2015-07-26T03:36:22Z</time>
            </trkpt>
            <trkpt lon="101.063614" lat="13.036453">
                <ele>136.160000</ele>
                <time>2015-07-26T03:36:38Z</time>
            </trkpt>
            <trkpt lon="101.063592" lat="13.036373">
                <ele>137.130000</ele>
                <time>2015-07-26T03:36:45Z</time>
            </trkpt>
            <trkpt lon="101.063545" lat="13.036166">
                <ele>142.410000</ele>
                <time>2015-07-26T03:36:59Z</time>
            </trkpt>
            <trkpt lon="101.063559" lat="13.035984">
                <ele>142.410000</ele>
                <time>2015-07-26T03:37:10Z</time>
            </trkpt>
            <trkpt lon="101.063559" lat="13.035891">
                <ele>137.130000</ele>
                <time>2015-07-26T03:37:23Z</time>
            </trkpt>
            <trkpt lon="101.063566" lat="13.035832">
                <ele>135.680000</ele>
                <time>2015-07-26T03:37:33Z</time>
            </trkpt>
            <trkpt lon="101.063355" lat="13.035707">
                <ele>132.320000</ele>
                <time>2015-07-26T03:37:45Z</time>
            </trkpt>
            <trkpt lon="101.063260" lat="13.035430">
                <ele>129.430000</ele>
                <time>2015-07-26T03:37:56Z</time>
            </trkpt>
            <trkpt lon="101.063165" lat="13.035069">
                <ele>126.550000</ele>
                <time>2015-07-26T03:38:08Z</time>
            </trkpt>
            <trkpt lon="101.063041" lat="13.034568">
                <ele>123.670000</ele>
                <time>2015-07-26T03:38:24Z</time>
            </trkpt>
            <trkpt lon="101.062881" lat="13.034028">
                <ele>121.260000</ele>
                <time>2015-07-26T03:38:41Z</time>
            </trkpt>
            <trkpt lon="101.062709" lat="13.033447">
                <ele>117.900000</ele>
                <time>2015-07-26T03:38:57Z</time>
            </trkpt>
            <trkpt lon="101.062603" lat="13.033105">
                <ele>117.420000</ele>
                <time>2015-07-26T03:39:10Z</time>
            </trkpt>
            <trkpt lon="101.062468" lat="13.032757">
                <ele>115.980000</ele>
                <time>2015-07-26T03:39:22Z</time>
            </trkpt>
            <trkpt lon="101.062146" lat="13.032417">
                <ele>115.500000</ele>
                <time>2015-07-26T03:39:35Z</time>
            </trkpt>
            <trkpt lon="101.061934" lat="13.032070">
                <ele>115.500000</ele>
                <time>2015-07-26T03:39:49Z</time>
            </trkpt>
            <trkpt lon="101.061919" lat="13.032047">
                <ele>115.500000</ele>
                <time>2015-07-26T03:39:50Z</time>
            </trkpt>
            <trkpt lon="101.062033" lat="13.031998">
                <ele>116.940000</ele>
                <time>2015-07-26T03:39:59Z</time>
            </trkpt>
            <trkpt lon="101.062124" lat="13.031981">
                <ele>117.900000</ele>
                <time>2015-07-26T03:40:05Z</time>
            </trkpt>
            <trkpt lon="101.062217" lat="13.031975">
                <ele>117.900000</ele>
                <time>2015-07-26T03:40:12Z</time>
            </trkpt>
            <trkpt lon="101.062324" lat="13.031986">
                <ele>118.380000</ele>
                <time>2015-07-26T03:40:25Z</time>
            </trkpt>
            <trkpt lon="101.062632" lat="13.031971">
                <ele>119.340000</ele>
                <time>2015-07-26T03:40:45Z</time>
            </trkpt>
            <trkpt lon="101.062940" lat="13.031961">
                <ele>121.260000</ele>
                <time>2015-07-26T03:41:04Z</time>
            </trkpt>
            <trkpt lon="101.063094" lat="13.031947">
                <ele>121.740000</ele>
                <time>2015-07-26T03:41:14Z</time>
            </trkpt>
            <trkpt lon="101.063328" lat="13.031936">
                <ele>122.220000</ele>
                <time>2015-07-26T03:41:30Z</time>
            </trkpt>
            <trkpt lon="101.063600" lat="13.031935">
                <ele>124.150000</ele>
                <time>2015-07-26T03:41:46Z</time>
            </trkpt>
            <trkpt lon="101.063932" lat="13.031926">
                <ele>125.110000</ele>
                <time>2015-07-26T03:42:02Z</time>
            </trkpt>
            <trkpt lon="101.064258" lat="13.031920">
                <ele>125.110000</ele>
                <time>2015-07-26T03:42:16Z</time>
            </trkpt>
            <trkpt lon="101.064598" lat="13.031896">
                <ele>124.630000</ele>
                <time>2015-07-26T03:42:29Z</time>
            </trkpt>
            <trkpt lon="101.065034" lat="13.031887">
                <ele>123.190000</ele>
                <time>2015-07-26T03:42:44Z</time>
            </trkpt>
            <trkpt lon="101.065373" lat="13.031897">
                <ele>122.710000</ele>
                <time>2015-07-26T03:42:58Z</time>
            </trkpt>
            <trkpt lon="101.065657" lat="13.031873">
                <ele>121.740000</ele>
                <time>2015-07-26T03:43:09Z</time>
            </trkpt>
            <trkpt lon="101.065741" lat="13.031823">
                <ele>121.260000</ele>
                <time>2015-07-26T03:43:15Z</time>
            </trkpt>
            <trkpt lon="101.065830" lat="13.031790">
                <ele>120.780000</ele>
                <time>2015-07-26T03:43:22Z</time>
            </trkpt>
            <trkpt lon="101.065907" lat="13.031765">
                <ele>119.820000</ele>
                <time>2015-07-26T03:43:33Z</time>
            </trkpt>
            <trkpt lon="101.065883" lat="13.031708">
                <ele>119.820000</ele>
                <time>2015-07-26T03:43:37Z</time>
            </trkpt>
            <trkpt lon="101.065820" lat="13.031610">
                <ele>119.340000</ele>
                <time>2015-07-26T03:43:49Z</time>
            </trkpt>
            <trkpt lon="101.065808" lat="13.031595">
                <ele>118.860000</ele>
                <time>2015-07-26T03:44:00Z</time>
            </trkpt>
            <trkpt lon="101.065712" lat="13.031519">
                <ele>119.340000</ele>
                <time>2015-07-26T03:44:16Z</time>
            </trkpt>
            <trkpt lon="101.065592" lat="13.031466">
                <ele>120.300000</ele>
                <time>2015-07-26T03:44:28Z</time>
            </trkpt>
            <trkpt lon="101.065571" lat="13.031370">
                <ele>119.340000</ele>
                <time>2015-07-26T03:44:42Z</time>
            </trkpt>
            <trkpt lon="101.065580" lat="13.031298">
                <ele>117.420000</ele>
                <time>2015-07-26T03:44:57Z</time>
            </trkpt>
            <trkpt lon="101.065570" lat="13.031274">
                <ele>117.420000</ele>
                <time>2015-07-26T03:45:06Z</time>
            </trkpt>
            <trkpt lon="101.065557" lat="13.031267">
                <ele>117.420000</ele>
                <time>2015-07-26T03:45:28Z</time>
            </trkpt>
            <trkpt lon="101.065512" lat="13.031185">
                <ele>117.900000</ele>
                <time>2015-07-26T03:45:44Z</time>
            </trkpt>
            <trkpt lon="101.065490" lat="13.031135">
                <ele>118.380000</ele>
                <time>2015-07-26T03:45:51Z</time>
            </trkpt>
            <trkpt lon="101.065425" lat="13.031024">
                <ele>117.900000</ele>
                <time>2015-07-26T03:46:05Z</time>
            </trkpt>
            <trkpt lon="101.065371" lat="13.030889">
                <ele>120.300000</ele>
                <time>2015-07-26T03:46:20Z</time>
            </trkpt>
            <trkpt lon="101.065420" lat="13.030722">
                <ele>120.780000</ele>
                <time>2015-07-26T03:46:36Z</time>
            </trkpt>
            <trkpt lon="101.065470" lat="13.030691">
                <ele>118.860000</ele>
                <time>2015-07-26T03:46:51Z</time>
            </trkpt>
            <trkpt lon="101.065501" lat="13.030670">
                <ele>117.420000</ele>
                <time>2015-07-26T03:47:08Z</time>
            </trkpt>
            <trkpt lon="101.065524" lat="13.030673">
                <ele>115.980000</ele>
                <time>2015-07-26T03:47:20Z</time>
            </trkpt>
            <trkpt lon="101.065537" lat="13.030676">
                <ele>115.980000</ele>
                <time>2015-07-26T03:47:22Z</time>
            </trkpt>
            <trkpt lon="101.065635" lat="13.030687">
                <ele>117.900000</ele>
                <time>2015-07-26T03:47:36Z</time>
            </trkpt>
            <trkpt lon="101.065696" lat="13.030698">
                <ele>118.860000</ele>
                <time>2015-07-26T03:47:39Z</time>
            </trkpt>
            <trkpt lon="101.065780" lat="13.030630">
                <ele>118.860000</ele>
                <time>2015-07-26T03:47:44Z</time>
            </trkpt>
            <trkpt lon="101.065910" lat="13.030157">
                <ele>117.900000</ele>
                <time>2015-07-26T03:48:00Z</time>
            </trkpt>
            <trkpt lon="101.065934" lat="13.030092">
                <ele>117.900000</ele>
                <time>2015-07-26T03:48:02Z</time>
            </trkpt>
            <trkpt lon="101.066066" lat="13.029979">
                <ele>116.940000</ele>
                <time>2015-07-26T03:48:08Z</time>
            </trkpt>
            <trkpt lon="101.066294" lat="13.029665">
                <ele>117.900000</ele>
                <time>2015-07-26T03:48:22Z</time>
            </trkpt>
            <trkpt lon="101.066486" lat="13.029468">
                <ele>117.900000</ele>
                <time>2015-07-26T03:48:32Z</time>
            </trkpt>
            <trkpt lon="101.066732" lat="13.029405">
                <ele>117.900000</ele>
                <time>2015-07-26T03:48:43Z</time>
            </trkpt>
            <trkpt lon="101.066898" lat="13.029306">
                <ele>117.900000</ele>
                <time>2015-07-26T03:48:50Z</time>
            </trkpt>
            <trkpt lon="101.066903" lat="13.029278">
                <ele>117.900000</ele>
                <time>2015-07-26T03:48:51Z</time>
            </trkpt>
            <trkpt lon="101.066906" lat="13.029249">
                <ele>117.900000</ele>
                <time>2015-07-26T03:48:52Z</time>
            </trkpt>
            <trkpt lon="101.066930" lat="13.028989">
                <ele>116.460000</ele>
                <time>2015-07-26T03:49:01Z</time>
            </trkpt>
            <trkpt lon="101.067230" lat="13.028995">
                <ele>117.900000</ele>
                <time>2015-07-26T03:49:11Z</time>
            </trkpt>
            <trkpt lon="101.067599" lat="13.029001">
                <ele>120.300000</ele>
                <time>2015-07-26T03:49:26Z</time>
            </trkpt>
            <trkpt lon="101.068072" lat="13.029030">
                <ele>122.710000</ele>
                <time>2015-07-26T03:49:44Z</time>
            </trkpt>
            <trkpt lon="101.068250" lat="13.029035">
                <ele>123.190000</ele>
                <time>2015-07-26T03:49:57Z</time>
            </trkpt>
            <trkpt lon="101.068325" lat="13.029028">
                <ele>123.190000</ele>
                <time>2015-07-26T03:50:08Z</time>
            </trkpt>
            <trkpt lon="101.068441" lat="13.029029">
                <ele>123.190000</ele>
                <time>2015-07-26T03:50:20Z</time>
            </trkpt>
            <trkpt lon="101.068500" lat="13.029045">
                <ele>123.190000</ele>
                <time>2015-07-26T03:50:30Z</time>
            </trkpt>
            <trkpt lon="101.068659" lat="13.029059">
                <ele>123.190000</ele>
                <time>2015-07-26T03:50:42Z</time>
            </trkpt>
            <trkpt lon="101.068900" lat="13.028979">
                <ele>122.710000</ele>
                <time>2015-07-26T03:50:58Z</time>
            </trkpt>
            <trkpt lon="101.069268" lat="13.028815">
                <ele>122.710000</ele>
                <time>2015-07-26T03:51:15Z</time>
            </trkpt>
            <trkpt lon="101.069621" lat="13.028642">
                <ele>122.220000</ele>
                <time>2015-07-26T03:51:30Z</time>
            </trkpt>
            <trkpt lon="101.069955" lat="13.028488">
                <ele>121.740000</ele>
                <time>2015-07-26T03:51:44Z</time>
            </trkpt>
            <trkpt lon="101.070207" lat="13.028390">
                <ele>120.780000</ele>
                <time>2015-07-26T03:51:57Z</time>
            </trkpt>
            <trkpt lon="101.070550" lat="13.028274">
                <ele>120.300000</ele>
                <time>2015-07-26T03:52:11Z</time>
            </trkpt>
            <trkpt lon="101.070753" lat="13.028215">
                <ele>120.300000</ele>
                <time>2015-07-26T03:52:20Z</time>
            </trkpt>
            <trkpt lon="101.070835" lat="13.028326">
                <ele>120.300000</ele>
                <time>2015-07-26T03:52:26Z</time>
            </trkpt>
            <trkpt lon="101.070906" lat="13.028648">
                <ele>120.780000</ele>
                <time>2015-07-26T03:52:45Z</time>
            </trkpt>
            <trkpt lon="101.070939" lat="13.028812">
                <ele>121.740000</ele>
                <time>2015-07-26T03:52:56Z</time>
            </trkpt>
            <trkpt lon="101.070953" lat="13.028927">
                <ele>122.710000</ele>
                <time>2015-07-26T03:53:05Z</time>
            </trkpt>
            <trkpt lon="101.070958" lat="13.028986">
                <ele>123.190000</ele>
                <time>2015-07-26T03:53:20Z</time>
            </trkpt>
            <trkpt lon="101.070967" lat="13.029057">
                <ele>123.670000</ele>
                <time>2015-07-26T03:53:35Z</time>
            </trkpt>
            <trkpt lon="101.071009" lat="13.029269">
                <ele>125.110000</ele>
                <time>2015-07-26T03:53:52Z</time>
            </trkpt>
            <trkpt lon="101.071052" lat="13.029482">
                <ele>127.030000</ele>
                <time>2015-07-26T03:54:07Z</time>
            </trkpt>
            <trkpt lon="101.071060" lat="13.029488">
                <ele>127.510000</ele>
                <time>2015-07-26T03:54:08Z</time>
            </trkpt>
            <trkpt lon="101.071188" lat="13.029484">
                <ele>127.510000</ele>
                <time>2015-07-26T03:54:17Z</time>
            </trkpt>
            <trkpt lon="101.071611" lat="13.029347">
                <ele>127.990000</ele>
                <time>2015-07-26T03:54:34Z</time>
            </trkpt>
            <trkpt lon="101.071937" lat="13.029183">
                <ele>126.070000</ele>
                <time>2015-07-26T03:54:47Z</time>
            </trkpt>
            <trkpt lon="101.071959" lat="13.029185">
                <ele>125.590000</ele>
                <time>2015-07-26T03:54:48Z</time>
            </trkpt>
            <trkpt lon="101.071999" lat="13.029263">
                <ele>126.070000</ele>
                <time>2015-07-26T03:54:57Z</time>
            </trkpt>
            <trkpt lon="101.072016" lat="13.029383">
                <ele>127.030000</ele>
                <time>2015-07-26T03:55:08Z</time>
            </trkpt>
            <trkpt lon="101.072026" lat="13.029587">
                <ele>127.990000</ele>
                <time>2015-07-26T03:55:24Z</time>
            </trkpt>
            <trkpt lon="101.072052" lat="13.029702">
                <ele>128.950000</ele>
                <time>2015-07-26T03:55:37Z</time>
            </trkpt>
            <trkpt lon="101.072061" lat="13.029879">
                <ele>130.880000</ele>
                <time>2015-07-26T03:55:54Z</time>
            </trkpt>
            <trkpt lon="101.072051" lat="13.030035">
                <ele>132.800000</ele>
                <time>2015-07-26T03:56:11Z</time>
            </trkpt>
            <trkpt lon="101.072044" lat="13.030135">
                <ele>134.240000</ele>
                <time>2015-07-26T03:56:22Z</time>
            </trkpt>
            <trkpt lon="101.072090" lat="13.030167">
                <ele>135.200000</ele>
                <time>2015-07-26T03:56:31Z</time>
            </trkpt>
            <trkpt lon="101.072201" lat="13.030141">
                <ele>135.200000</ele>
                <time>2015-07-26T03:56:36Z</time>
            </trkpt>
            <trkpt lon="101.072727" lat="13.030188">
                <ele>133.760000</ele>
                <time>2015-07-26T03:56:52Z</time>
            </trkpt>
            <trkpt lon="101.073027" lat="13.030393">
                <ele>134.720000</ele>
                <time>2015-07-26T03:57:04Z</time>
            </trkpt>
            <trkpt lon="101.073224" lat="13.030630">
                <ele>137.130000</ele>
                <time>2015-07-26T03:57:16Z</time>
            </trkpt>
            <trkpt lon="101.073425" lat="13.030795">
                <ele>137.130000</ele>
                <time>2015-07-26T03:57:28Z</time>
            </trkpt>
            <trkpt lon="101.073473" lat="13.031059">
                <ele>137.130000</ele>
                <time>2015-07-26T03:57:44Z</time>
            </trkpt>
            <trkpt lon="101.073563" lat="13.031383">
                <ele>136.160000</ele>
                <time>2015-07-26T03:57:59Z</time>
            </trkpt>
            <trkpt lon="101.073409" lat="13.031615">
                <ele>138.090000</ele>
                <time>2015-07-26T03:58:14Z</time>
            </trkpt>
            <trkpt lon="101.073289" lat="13.031952">
                <ele>138.090000</ele>
                <time>2015-07-26T03:58:29Z</time>
            </trkpt>
            <trkpt lon="101.073258" lat="13.032055">
                <ele>139.050000</ele>
                <time>2015-07-26T03:58:36Z</time>
            </trkpt>
            <trkpt lon="101.073220" lat="13.032317">
                <ele>140.490000</ele>
                <time>2015-07-26T03:58:51Z</time>
            </trkpt>
            <trkpt lon="101.073145" lat="13.032616">
                <ele>142.410000</ele>
                <time>2015-07-26T03:59:04Z</time>
            </trkpt>
            <trkpt lon="101.073059" lat="13.032694">
                <ele>142.890000</ele>
                <time>2015-07-26T03:59:11Z</time>
            </trkpt>
            <trkpt lon="101.072994" lat="13.032738">
                <ele>142.890000</ele>
                <time>2015-07-26T03:59:16Z</time>
            </trkpt>
            <trkpt lon="101.072904" lat="13.032787">
                <ele>142.890000</ele>
                <time>2015-07-26T03:59:22Z</time>
            </trkpt>
            <trkpt lon="101.072674" lat="13.032861">
                <ele>145.300000</ele>
                <time>2015-07-26T03:59:36Z</time>
            </trkpt>
            <trkpt lon="101.072339" lat="13.032890">
                <ele>147.220000</ele>
                <time>2015-07-26T03:59:54Z</time>
            </trkpt>
            <trkpt lon="101.072049" lat="13.032919">
                <ele>146.740000</ele>
                <time>2015-07-26T04:00:04Z</time>
            </trkpt>
            <trkpt lon="101.071975" lat="13.033040">
                <ele>145.780000</ele>
                <time>2015-07-26T04:00:09Z</time>
            </trkpt>
            <trkpt lon="101.071883" lat="13.033353">
                <ele>144.820000</ele>
                <time>2015-07-26T04:00:22Z</time>
            </trkpt>
            <trkpt lon="101.071858" lat="13.033563">
                <ele>146.740000</ele>
                <time>2015-07-26T04:00:36Z</time>
            </trkpt>
            <trkpt lon="101.071854" lat="13.033612">
                <ele>146.740000</ele>
                <time>2015-07-26T04:00:47Z</time>
            </trkpt>
            <trkpt lon="101.071830" lat="13.033745">
                <ele>146.740000</ele>
                <time>2015-07-26T04:00:59Z</time>
            </trkpt>
            <trkpt lon="101.071762" lat="13.034010">
                <ele>146.740000</ele>
                <time>2015-07-26T04:01:16Z</time>
            </trkpt>
            <trkpt lon="101.071653" lat="13.034210">
                <ele>147.700000</ele>
                <time>2015-07-26T04:01:30Z</time>
            </trkpt>
            <trkpt lon="101.071441" lat="13.034446">
                <ele>149.140000</ele>
                <time>2015-07-26T04:01:48Z</time>
            </trkpt>
            <trkpt lon="101.071071" lat="13.034688">
                <ele>149.620000</ele>
                <time>2015-07-26T04:02:05Z</time>
            </trkpt>
            <trkpt lon="101.070791" lat="13.034949">
                <ele>151.060000</ele>
                <time>2015-07-26T04:02:22Z</time>
            </trkpt>
            <trkpt lon="101.070555" lat="13.035192">
                <ele>151.060000</ele>
                <time>2015-07-26T04:02:37Z</time>
            </trkpt>
            <trkpt lon="101.070392" lat="13.035452">
                <ele>151.540000</ele>
                <time>2015-07-26T04:02:53Z</time>
            </trkpt>
            <trkpt lon="101.070201" lat="13.035721">
                <ele>152.030000</ele>
                <time>2015-07-26T04:03:09Z</time>
            </trkpt>
            <trkpt lon="101.070050" lat="13.035976">
                <ele>152.510000</ele>
                <time>2015-07-26T04:03:23Z</time>
            </trkpt>
            <trkpt lon="101.069855" lat="13.036245">
                <ele>153.470000</ele>
                <time>2015-07-26T04:03:39Z</time>
            </trkpt>
            <trkpt lon="101.069679" lat="13.036512">
                <ele>154.430000</ele>
                <time>2015-07-26T04:03:53Z</time>
            </trkpt>
            <trkpt lon="101.069490" lat="13.036810">
                <ele>153.470000</ele>
                <time>2015-07-26T04:04:07Z</time>
            </trkpt>
            <trkpt lon="101.069385" lat="13.036869">
                <ele>152.510000</ele>
                <time>2015-07-26T04:04:18Z</time>
            </trkpt>
            <trkpt lon="101.069329" lat="13.036892">
                <ele>151.060000</ele>
                <time>2015-07-26T04:04:31Z</time>
            </trkpt>
            <trkpt lon="101.069296" lat="13.036899">
                <ele>150.580000</ele>
                <time>2015-07-26T04:04:35Z</time>
            </trkpt>
            <trkpt lon="101.069174" lat="13.036927">
                <ele>148.660000</ele>
                <time>2015-07-26T04:04:50Z</time>
            </trkpt>
            <trkpt lon="101.069054" lat="13.036983">
                <ele>146.260000</ele>
                <time>2015-07-26T04:05:03Z</time>
            </trkpt>
            <trkpt lon="101.068910" lat="13.037037">
                <ele>143.850000</ele>
                <time>2015-07-26T04:05:17Z</time>
            </trkpt>
            <trkpt lon="101.068889" lat="13.037049">
                <ele>143.370000</ele>
                <time>2015-07-26T04:05:19Z</time>
            </trkpt>
            <trkpt lon="101.068829" lat="13.037086">
                <ele>142.890000</ele>
                <time>2015-07-26T04:05:29Z</time>
            </trkpt>
            <trkpt lon="101.068791" lat="13.037157">
                <ele>143.370000</ele>
                <time>2015-07-26T04:05:34Z</time>
            </trkpt>
            <trkpt lon="101.068675" lat="13.037555">
                <ele>143.370000</ele>
                <time>2015-07-26T04:05:53Z</time>
            </trkpt>
            <trkpt lon="101.068646" lat="13.037829">
                <ele>144.340000</ele>
                <time>2015-07-26T04:06:08Z</time>
            </trkpt>
            <trkpt lon="101.068662" lat="13.037992">
                <ele>147.220000</ele>
                <time>2015-07-26T04:06:22Z</time>
            </trkpt>
            <trkpt lon="101.068680" lat="13.038147">
                <ele>148.180000</ele>
                <time>2015-07-26T04:06:34Z</time>
            </trkpt>
            <trkpt lon="101.068717" lat="13.038490">
                <ele>149.140000</ele>
                <time>2015-07-26T04:06:53Z</time>
            </trkpt>
            <trkpt lon="101.068768" lat="13.038870">
                <ele>148.180000</ele>
                <time>2015-07-26T04:07:07Z</time>
            </trkpt>
            <trkpt lon="101.068849" lat="13.039227">
                <ele>147.700000</ele>
                <time>2015-07-26T04:07:22Z</time>
            </trkpt>
            <trkpt lon="101.068883" lat="13.039467">
                <ele>145.300000</ele>
                <time>2015-07-26T04:07:36Z</time>
            </trkpt>
            <trkpt lon="101.069025" lat="13.039756">
                <ele>144.820000</ele>
                <time>2015-07-26T04:07:49Z</time>
            </trkpt>
            <trkpt lon="101.069191" lat="13.039999">
                <ele>143.370000</ele>
                <time>2015-07-26T04:08:03Z</time>
            </trkpt>
            <trkpt lon="101.069222" lat="13.040054">
                <ele>144.340000</ele>
                <time>2015-07-26T04:08:16Z</time>
            </trkpt>
            <trkpt lon="101.069245" lat="13.040099">
                <ele>143.370000</ele>
                <time>2015-07-26T04:08:41Z</time>
            </trkpt>
            <trkpt lon="101.069305" lat="13.040219">
                <ele>141.450000</ele>
                <time>2015-07-26T04:08:55Z</time>
            </trkpt>
            <trkpt lon="101.069330" lat="13.040259">
                <ele>140.970000</ele>
                <time>2015-07-26T04:09:00Z</time>
            </trkpt>
            <trkpt lon="101.069408" lat="13.040379">
                <ele>139.530000</ele>
                <time>2015-07-26T04:09:17Z</time>
            </trkpt>
            <trkpt lon="101.069413" lat="13.040384">
                <ele>140.010000</ele>
                <time>2015-07-26T04:09:28Z</time>
            </trkpt>
            <trkpt lon="101.069606" lat="13.040581">
                <ele>138.090000</ele>
                <time>2015-07-26T04:09:42Z</time>
            </trkpt>
            <trkpt lon="101.069768" lat="13.040696">
                <ele>136.160000</ele>
                <time>2015-07-26T04:09:53Z</time>
            </trkpt>
            <trkpt lon="101.069778" lat="13.040805">
                <ele>134.720000</ele>
                <time>2015-07-26T04:09:59Z</time>
            </trkpt>
            <trkpt lon="101.069694" lat="13.041019">
                <ele>130.880000</ele>
                <time>2015-07-26T04:10:11Z</time>
            </trkpt>
            <trkpt lon="101.069618" lat="13.041188">
                <ele>127.990000</ele>
                <time>2015-07-26T04:10:19Z</time>
            </trkpt>
            <trkpt lon="101.069502" lat="13.041442">
                <ele>127.030000</ele>
                <time>2015-07-26T04:10:29Z</time>
            </trkpt>
            <trkpt lon="101.069317" lat="13.041831">
                <ele>125.110000</ele>
                <time>2015-07-26T04:10:43Z</time>
            </trkpt>
            <trkpt lon="101.069151" lat="13.042172">
                <ele>124.150000</ele>
                <time>2015-07-26T04:10:57Z</time>
            </trkpt>
            <trkpt lon="101.069118" lat="13.042398">
                <ele>123.190000</ele>
                <time>2015-07-26T04:11:08Z</time>
            </trkpt>
            <trkpt lon="101.069119" lat="13.042523">
                <ele>122.710000</ele>
                <time>2015-07-26T04:11:13Z</time>
            </trkpt>
            <trkpt lon="101.069313" lat="13.042785">
                <ele>120.300000</ele>
                <time>2015-07-26T04:11:26Z</time>
            </trkpt>
            <trkpt lon="101.069418" lat="13.043046">
                <ele>119.340000</ele>
                <time>2015-07-26T04:11:36Z</time>
            </trkpt>
            <trkpt lon="101.069323" lat="13.043497">
                <ele>115.010000</ele>
                <time>2015-07-26T04:11:50Z</time>
            </trkpt>
            <trkpt lon="101.069101" lat="13.043672">
                <ele>113.090000</ele>
                <time>2015-07-26T04:12:01Z</time>
            </trkpt>
            <trkpt lon="101.069129" lat="13.043788">
                <ele>112.610000</ele>
                <time>2015-07-26T04:12:05Z</time>
            </trkpt>
            <trkpt lon="101.069428" lat="13.044514">
                <ele>107.810000</ele>
                <time>2015-07-26T04:12:20Z</time>
            </trkpt>
            <trkpt lon="101.069588" lat="13.044955">
                <ele>106.840000</ele>
                <time>2015-07-26T04:12:29Z</time>
            </trkpt>
            <trkpt lon="101.069596" lat="13.044892">
                <ele>106.840000</ele>
                <time>2015-07-26T04:12:35Z</time>
            </trkpt>
            <trkpt lon="101.069573" lat="13.044858">
                <ele>106.840000</ele>
                <time>2015-07-26T04:12:37Z</time>
            </trkpt>
            <trkpt lon="101.069488" lat="13.044841">
                <ele>107.810000</ele>
                <time>2015-07-26T04:12:50Z</time>
            </trkpt>
            <trkpt lon="101.069111" lat="13.044806">
                <ele>111.170000</ele>
                <time>2015-07-26T04:13:04Z</time>
            </trkpt>
            <trkpt lon="101.068677" lat="13.044755">
                <ele>112.610000</ele>
                <time>2015-07-26T04:13:18Z</time>
            </trkpt>
            <trkpt lon="101.068289" lat="13.044727">
                <ele>114.050000</ele>
                <time>2015-07-26T04:13:32Z</time>
            </trkpt>
            <trkpt lon="101.068237" lat="13.044736">
                <ele>112.610000</ele>
                <time>2015-07-26T04:13:42Z</time>
            </trkpt>
            <trkpt lon="101.068190" lat="13.044759">
                <ele>112.130000</ele>
                <time>2015-07-26T04:13:46Z</time>
            </trkpt>
            <trkpt lon="101.068034" lat="13.044755">
                <ele>111.650000</ele>
                <time>2015-07-26T04:13:56Z</time>
            </trkpt>
            <trkpt lon="101.067703" lat="13.044671">
                <ele>110.690000</ele>
                <time>2015-07-26T04:14:10Z</time>
            </trkpt>
            <trkpt lon="101.067410" lat="13.044593">
                <ele>111.170000</ele>
                <time>2015-07-26T04:14:24Z</time>
            </trkpt>
            <trkpt lon="101.067191" lat="13.044489">
                <ele>110.690000</ele>
                <time>2015-07-26T04:14:38Z</time>
            </trkpt>
            <trkpt lon="101.067111" lat="13.044468">
                <ele>111.170000</ele>
                <time>2015-07-26T04:14:50Z</time>
            </trkpt>
            <trkpt lon="101.066858" lat="13.044315">
                <ele>111.650000</ele>
                <time>2015-07-26T04:15:05Z</time>
            </trkpt>
            <trkpt lon="101.066801" lat="13.044279">
                <ele>112.130000</ele>
                <time>2015-07-26T04:15:11Z</time>
            </trkpt>
            <trkpt lon="101.066770" lat="13.044361">
                <ele>112.130000</ele>
                <time>2015-07-26T04:15:18Z</time>
            </trkpt>
            <trkpt lon="101.066844" lat="13.044885">
                <ele>111.650000</ele>
                <time>2015-07-26T04:15:37Z</time>
            </trkpt>
            <trkpt lon="101.066932" lat="13.045374">
                <ele>112.610000</ele>
                <time>2015-07-26T04:15:53Z</time>
            </trkpt>
            <trkpt lon="101.066938" lat="13.045478">
                <ele>112.610000</ele>
                <time>2015-07-26T04:15:57Z</time>
            </trkpt>
            <trkpt lon="101.066733" lat="13.045578">
                <ele>113.570000</ele>
                <time>2015-07-26T04:16:08Z</time>
            </trkpt>
            <trkpt lon="101.066413" lat="13.045695">
                <ele>115.980000</ele>
                <time>2015-07-26T04:16:26Z</time>
            </trkpt>
            <trkpt lon="101.066166" lat="13.045778">
                <ele>117.420000</ele>
                <time>2015-07-26T04:16:40Z</time>
            </trkpt>
            <trkpt lon="101.066165" lat="13.045857">
                <ele>118.380000</ele>
                <time>2015-07-26T04:16:53Z</time>
            </trkpt>
            <trkpt lon="101.066167" lat="13.045863">
                <ele>118.380000</ele>
                <time>2015-07-26T04:16:54Z</time>
            </trkpt>
            <trkpt lon="101.066149" lat="13.045951">
                <ele>118.860000</ele>
                <time>2015-07-26T04:17:01Z</time>
            </trkpt>
            <trkpt lon="101.065940" lat="13.046027">
                <ele>120.300000</ele>
                <time>2015-07-26T04:17:15Z</time>
            </trkpt>
            <trkpt lon="101.065920" lat="13.046022">
                <ele>120.300000</ele>
                <time>2015-07-26T04:17:17Z</time>
            </trkpt>
            <trkpt lon="101.065806" lat="13.045741">
                <ele>118.860000</ele>
                <time>2015-07-26T04:17:31Z</time>
            </trkpt>
            <trkpt lon="101.065735" lat="13.045375">
                <ele>116.460000</ele>
                <time>2015-07-26T04:17:45Z</time>
            </trkpt>
            <trkpt lon="101.065730" lat="13.045221">
                <ele>115.980000</ele>
                <time>2015-07-26T04:17:51Z</time>
            </trkpt>
            <trkpt lon="101.065725" lat="13.045122">
                <ele>115.500000</ele>
                <time>2015-07-26T04:17:55Z</time>
            </trkpt>
            <trkpt lon="101.065733" lat="13.044739">
                <ele>113.090000</ele>
                <time>2015-07-26T04:18:09Z</time>
            </trkpt>
            <trkpt lon="101.065704" lat="13.044406">
                <ele>112.130000</ele>
                <time>2015-07-26T04:18:21Z</time>
            </trkpt>
            <trkpt lon="101.065666" lat="13.044219">
                <ele>111.650000</ele>
                <time>2015-07-26T04:18:29Z</time>
            </trkpt>
            <trkpt lon="101.065610" lat="13.044198">
                <ele>111.650000</ele>
                <time>2015-07-26T04:18:33Z</time>
            </trkpt>
            <trkpt lon="101.065432" lat="13.044218">
                <ele>112.610000</ele>
                <time>2015-07-26T04:18:43Z</time>
            </trkpt>
            <trkpt lon="101.065296" lat="13.044032">
                <ele>113.570000</ele>
                <time>2015-07-26T04:18:59Z</time>
            </trkpt>
            <trkpt lon="101.065283" lat="13.043832">
                <ele>112.610000</ele>
                <time>2015-07-26T04:19:11Z</time>
            </trkpt>
            <trkpt lon="101.065265" lat="13.043806">
                <ele>112.130000</ele>
                <time>2015-07-26T04:19:16Z</time>
            </trkpt>
            <trkpt lon="101.065186" lat="13.043820">
                <ele>112.610000</ele>
                <time>2015-07-26T04:19:26Z</time>
            </trkpt>
            <trkpt lon="101.065059" lat="13.043856">
                <ele>112.610000</ele>
                <time>2015-07-26T04:19:43Z</time>
            </trkpt>
            <trkpt lon="101.064843" lat="13.043863">
                <ele>112.610000</ele>
                <time>2015-07-26T04:19:55Z</time>
            </trkpt>
            <trkpt lon="101.064438" lat="13.043721">
                <ele>112.610000</ele>
                <time>2015-07-26T04:20:15Z</time>
            </trkpt>
            <trkpt lon="101.064283" lat="13.043670">
                <ele>112.130000</ele>
                <time>2015-07-26T04:20:23Z</time>
            </trkpt>
            <trkpt lon="101.064033" lat="13.043650">
                <ele>113.570000</ele>
                <time>2015-07-26T04:20:37Z</time>
            </trkpt>
            <trkpt lon="101.063986" lat="13.043676">
                <ele>114.530000</ele>
                <time>2015-07-26T04:20:50Z</time>
            </trkpt>
            <trkpt lon="101.063988" lat="13.043689">
                <ele>114.050000</ele>
                <time>2015-07-26T04:21:14Z</time>
            </trkpt>
            <trkpt lon="101.063973" lat="13.043680">
                <ele>114.050000</ele>
                <time>2015-07-26T04:21:27Z</time>
            </trkpt>
        </trkseg>
    </trk>
</gpx>